createdAt,value
2018-02-22T00:00:52.323Z,62.82
2018-02-22T00:01:57.092Z,62.78
2018-02-22T00:03:01.743Z,62.80
2018-02-22T00:04:06.375Z,62.79
2018-02-22T00:05:11.025Z,62.90
2018-02-22T00:06:16.044Z,62.94
2018-02-22T00:07:20.714Z,62.98
2018-02-22T00:08:25.369Z,63.05
2018-02-22T00:09:30.013Z,63.13
2018-02-22T00:10:34.687Z,63.10
2018-02-22T00:11:39.175Z,63.15
2018-02-22T00:12:43.957Z,63.16
2018-02-22T00:13:48.457Z,63.18
2018-02-22T00:14:53.149Z,63.23
2018-02-22T00:15:57.695Z,63.29
2018-02-22T00:17:02.338Z,63.32
2018-02-22T00:18:07.014Z,63.32
2018-02-22T00:19:12.037Z,63.39
2018-02-22T00:20:16.774Z,63.43
2018-02-22T00:21:21.510Z,63.47
2018-02-22T00:22:26.230Z,63.58
2018-02-22T00:23:31.626Z,63.53
2018-02-22T00:24:36.375Z,63.52
2018-02-22T00:25:41.399Z,63.55
2018-02-22T00:26:46.255Z,63.51
2018-02-22T00:27:50.990Z,63.52
2018-02-22T00:28:55.746Z,63.61
2018-02-22T00:30:00.489Z,63.66
2018-02-22T00:31:05.186Z,63.71
2018-02-22T00:32:10.119Z,63.75
2018-02-22T00:33:14.805Z,63.72
2018-02-22T00:34:19.449Z,63.74
2018-02-22T00:35:24.080Z,63.81
2018-02-22T00:36:28.791Z,63.79
2018-02-22T00:37:33.538Z,63.75
2018-02-22T00:38:38.623Z,63.79
2018-02-22T00:39:43.398Z,63.81
2018-02-22T00:40:48.247Z,63.86
2018-02-22T00:41:52.969Z,63.88
2018-02-22T00:42:57.727Z,63.90
2018-02-22T00:44:02.538Z,63.87
2018-02-22T00:45:07.576Z,63.83
2018-02-22T00:46:12.276Z,63.81
2018-02-22T00:47:17.020Z,63.79
2018-02-22T00:48:21.692Z,63.88
2018-02-22T00:49:26.307Z,63.96
2018-02-22T00:50:31.000Z,64.05
2018-02-22T00:51:36.088Z,64.06
2018-02-22T00:52:40.752Z,64.08
2018-02-22T00:53:45.503Z,64.20
2018-02-22T00:54:50.149Z,64.23
2018-02-22T00:55:54.908Z,64.25
2018-02-22T00:56:59.683Z,64.31
2018-02-22T00:58:04.780Z,64.38
2018-02-22T00:59:09.506Z,64.43
2018-02-22T01:00:14.264Z,64.48
2018-02-22T01:01:19.078Z,64.50
2018-02-22T01:02:23.862Z,64.56
2018-02-22T01:03:28.603Z,64.57
2018-02-22T01:04:33.667Z,64.61
2018-02-22T01:05:38.392Z,64.67
2018-02-22T01:06:43.145Z,64.67
2018-02-22T01:07:47.847Z,64.69
2018-02-22T01:08:52.609Z,64.71
2018-02-22T01:09:57.430Z,64.68
2018-02-22T01:11:02.466Z,64.63
2018-02-22T01:12:07.196Z,64.58
2018-02-22T01:13:11.941Z,64.60
2018-02-22T01:14:16.707Z,64.57
2018-02-22T01:15:21.456Z,64.63
2018-02-22T01:16:26.185Z,64.69
2018-02-22T01:17:31.261Z,64.72
2018-02-22T01:18:35.945Z,64.74
2018-02-22T01:19:40.584Z,64.66
2018-02-22T01:20:45.436Z,64.77
2018-02-22T01:21:50.066Z,64.83
2018-02-22T01:22:54.729Z,64.88
2018-02-22T01:23:59.662Z,64.87
2018-02-22T01:25:04.226Z,64.92
2018-02-22T01:26:08.802Z,64.97
2018-02-22T01:27:13.357Z,64.98
2018-02-22T01:28:17.923Z,65.02
2018-02-22T01:29:22.510Z,65.01
2018-02-22T01:30:27.360Z,65.08
2018-02-22T01:31:31.980Z,65.05
2018-02-22T01:32:36.523Z,65.04
2018-02-22T01:33:41.146Z,65.14
2018-02-22T01:34:45.744Z,65.15
2018-02-22T01:35:50.298Z,65.21
2018-02-22T01:36:55.297Z,65.27
2018-02-22T01:37:59.993Z,65.26
2018-02-22T01:39:04.748Z,65.21
2018-02-22T01:40:09.312Z,65.14
2018-02-22T01:41:13.828Z,65.17
2018-02-22T01:42:18.321Z,65.21
2018-02-22T01:43:23.138Z,65.17
2018-02-22T01:44:27.660Z,65.16
2018-02-22T01:45:32.536Z,65.19
2018-02-22T01:46:37.043Z,65.25
2018-02-22T01:47:41.641Z,65.31
2018-02-22T01:48:46.461Z,65.38
2018-02-22T01:49:51.251Z,65.40
2018-02-22T01:50:55.919Z,65.43
2018-02-22T01:52:00.478Z,65.52
2018-02-22T01:53:05.206Z,65.63
2018-02-22T01:54:09.866Z,65.71
2018-02-22T01:55:14.487Z,65.69
2018-02-22T01:56:19.318Z,65.68
2018-02-22T01:57:23.800Z,65.69
2018-02-22T01:58:28.220Z,65.67
2018-02-22T01:59:32.632Z,65.67
2018-02-22T02:00:37.064Z,65.72
2018-02-22T02:01:41.478Z,65.78
2018-02-22T02:02:46.181Z,65.83
2018-02-22T02:03:50.679Z,65.95
2018-02-22T02:04:55.183Z,66.08
2018-02-22T02:05:59.707Z,66.07
2018-02-22T02:07:04.224Z,66.08
2018-02-22T02:08:08.727Z,66.13
2018-02-22T02:09:13.491Z,66.19
2018-02-22T02:10:18.012Z,66.35
2018-02-22T02:11:22.516Z,66.45
2018-02-22T02:12:27.042Z,66.46
2018-02-22T02:13:31.571Z,66.49
2018-02-22T02:14:36.073Z,66.48
2018-02-22T02:15:40.933Z,66.43
2018-02-22T02:16:45.491Z,66.42
2018-02-22T02:17:49.994Z,66.47
2018-02-22T02:18:55.324Z,66.47
2018-02-22T02:19:59.919Z,66.53
2018-02-22T02:21:04.480Z,66.49
2018-02-22T02:22:09.288Z,66.53
2018-02-22T02:23:13.819Z,66.59
2018-02-22T02:24:18.341Z,66.64
2018-02-22T02:25:22.832Z,66.66
2018-02-22T02:26:27.453Z,66.65
2018-02-22T02:27:31.974Z,66.68
2018-02-22T02:28:37.623Z,66.76
2018-02-22T02:29:42.183Z,66.88
2018-02-22T02:30:46.752Z,66.93
2018-02-22T02:31:51.286Z,66.95
2018-02-22T02:32:55.741Z,66.95
2018-02-22T02:34:00.444Z,67.02
2018-02-22T02:35:05.277Z,67.02
2018-02-22T02:36:09.812Z,67.03
2018-02-22T02:37:15.321Z,67.09
2018-02-22T02:38:19.994Z,67.20
2018-02-22T02:39:24.681Z,67.28
2018-02-22T02:40:29.366Z,67.30
2018-02-22T02:41:34.396Z,67.34
2018-02-22T02:42:39.202Z,67.35
2018-02-22T02:43:43.899Z,67.31
2018-02-22T02:44:48.604Z,67.32
2018-02-22T02:45:53.244Z,67.33
2018-02-22T02:46:57.909Z,67.44
2018-02-22T02:48:02.862Z,67.53
2018-02-22T02:49:07.527Z,67.51
2018-02-22T02:50:12.243Z,67.50
2018-02-22T02:51:16.947Z,67.55
2018-02-22T02:52:21.620Z,67.56
2018-02-22T02:53:26.369Z,67.55
2018-02-22T02:54:31.262Z,67.64
2018-02-22T02:55:35.806Z,67.65
2018-02-22T02:56:40.314Z,67.71
2018-02-22T02:57:44.862Z,67.73
2018-02-22T02:58:49.430Z,67.75
2018-02-22T02:59:54.138Z,67.78
2018-02-22T03:00:58.953Z,67.85
2018-02-22T03:02:03.468Z,67.88
2018-02-22T03:03:07.986Z,67.88
2018-02-22T03:04:12.531Z,67.95
2018-02-22T03:05:17.045Z,67.99
2018-02-22T03:06:21.545Z,68.02
2018-02-22T03:07:26.380Z,68.04
2018-02-22T03:08:30.908Z,68.12
2018-02-22T03:09:35.593Z,68.18
2018-02-22T03:10:40.263Z,68.20
2018-02-22T03:11:44.936Z,68.28
2018-02-22T03:12:49.637Z,68.32
2018-02-22T03:13:54.631Z,68.41
2018-02-22T03:14:59.314Z,68.40
2018-02-22T03:16:03.952Z,68.43
2018-02-22T03:17:08.655Z,68.46
2018-02-22T03:18:13.328Z,68.50
2018-02-22T03:19:18.100Z,68.48
2018-02-22T03:20:24.017Z,68.47
2018-02-22T03:21:28.712Z,68.47
2018-02-22T03:22:33.376Z,68.52
2018-02-22T03:23:38.052Z,68.54
2018-02-22T03:24:43.676Z,68.54
2018-02-22T03:25:48.403Z,68.58
2018-02-22T03:26:53.385Z,68.64
2018-02-22T03:27:58.031Z,68.63
2018-02-22T03:29:02.766Z,68.64
2018-02-22T03:30:07.485Z,68.67
2018-02-22T03:31:12.252Z,68.82
2018-02-22T03:32:16.979Z,68.87
2018-02-22T03:33:21.768Z,68.88
2018-02-22T03:34:26.275Z,68.88
2018-02-22T03:35:30.835Z,68.92
2018-02-22T03:36:35.350Z,68.96
2018-02-22T03:37:39.959Z,68.98
2018-02-22T03:38:44.480Z,68.96
2018-02-22T03:39:49.345Z,69.05
2018-02-22T03:40:54.047Z,69.02
2018-02-22T03:41:58.592Z,69.03
2018-02-22T03:43:03.238Z,69.08
2018-02-22T03:44:07.926Z,69.15
2018-02-22T03:45:12.636Z,69.27
2018-02-22T03:46:17.621Z,69.26
2018-02-22T03:47:22.314Z,69.26
2018-02-22T03:48:27.060Z,69.25
2018-02-22T03:49:32.792Z,69.26
2018-02-22T03:50:37.912Z,69.32
2018-02-22T03:51:42.696Z,69.35
2018-02-22T03:52:47.755Z,69.41
2018-02-22T03:53:52.509Z,69.48
2018-02-22T03:54:57.290Z,69.46
2018-02-22T03:56:02.093Z,69.45
2018-02-22T03:57:06.841Z,69.47
2018-02-22T03:58:11.672Z,69.52
2018-02-22T03:59:16.728Z,69.53
2018-02-22T04:00:21.515Z,69.60
2018-02-22T04:01:27.047Z,69.57
2018-02-22T04:02:31.727Z,69.57
2018-02-22T04:03:36.465Z,69.56
2018-02-22T04:04:41.190Z,69.61
2018-02-22T04:05:46.287Z,69.63
2018-02-22T04:06:50.951Z,69.67
2018-02-22T04:07:55.656Z,69.69
2018-02-22T04:09:00.328Z,69.71
2018-02-22T04:10:05.012Z,69.66
2018-02-22T04:11:09.655Z,69.63
2018-02-22T04:12:14.309Z,69.64
2018-02-22T04:13:19.043Z,69.66
2018-02-22T04:14:23.818Z,69.67
2018-02-22T04:15:28.659Z,69.67
2018-02-22T04:16:33.441Z,69.69
2018-02-22T04:17:38.449Z,69.68
2018-02-22T04:18:43.186Z,69.70
2018-02-22T04:19:48.036Z,69.71
2018-02-22T04:20:52.884Z,69.76
2018-02-22T04:21:57.580Z,69.78
2018-02-22T04:23:02.252Z,69.82
2018-02-22T04:24:07.189Z,69.80
2018-02-22T04:25:11.837Z,69.85
2018-02-22T04:26:16.535Z,69.90
2018-02-22T04:27:21.213Z,69.93
2018-02-22T04:28:25.898Z,69.92
2018-02-22T04:29:30.568Z,69.93
2018-02-22T04:30:35.263Z,69.95
2018-02-22T04:31:39.796Z,69.97
2018-02-22T04:32:44.455Z,69.95
2018-02-22T04:33:49.044Z,69.98
2018-02-22T04:34:53.641Z,69.94
2018-02-22T04:35:59.234Z,69.95
2018-02-22T04:37:04.006Z,69.93
2018-02-22T04:38:08.676Z,69.98
2018-02-22T04:39:13.399Z,70.03
2018-02-22T04:40:18.048Z,69.99
2018-02-22T04:41:22.752Z,69.94
2018-02-22T04:42:27.731Z,69.96
2018-02-22T04:43:34.283Z,69.98
2018-02-22T04:44:45.644Z,69.92
2018-02-22T04:45:50.396Z,69.93
2018-02-22T04:46:55.005Z,69.98
2018-02-22T04:47:59.707Z,69.97
2018-02-22T04:49:04.681Z,70.03
2018-02-22T04:50:09.298Z,70.00
2018-02-22T04:51:13.945Z,70.02
2018-02-22T04:52:18.526Z,70.00
2018-02-22T04:53:23.108Z,70.06
2018-02-22T04:54:27.792Z,70.05
2018-02-22T04:55:32.757Z,70.06
2018-02-22T04:56:37.523Z,70.12
2018-02-22T04:57:42.977Z,70.18
2018-02-22T04:58:47.674Z,70.28
2018-02-22T04:59:52.382Z,70.24
2018-02-22T05:00:57.059Z,70.23
2018-02-22T05:02:02.089Z,70.29
2018-02-22T05:03:06.833Z,70.25
2018-02-22T05:04:11.570Z,70.21
2018-02-22T05:05:16.275Z,70.16
2018-02-22T05:06:20.957Z,70.11
2018-02-22T05:07:25.691Z,70.16
2018-02-22T05:08:30.667Z,70.20
2018-02-22T05:09:35.404Z,70.21
2018-02-22T05:10:40.112Z,70.25
2018-02-22T05:11:44.820Z,70.28
2018-02-22T05:12:49.425Z,70.27
2018-02-22T05:13:54.017Z,70.30
2018-02-22T05:14:58.924Z,70.33
2018-02-22T05:16:03.528Z,70.36
2018-02-22T05:17:08.215Z,70.37
2018-02-22T05:18:12.908Z,70.36
2018-02-22T05:19:17.625Z,70.34
2018-02-22T05:20:23.286Z,70.33
2018-02-22T05:21:28.218Z,70.34
2018-02-22T05:22:32.936Z,70.34
2018-02-22T05:23:37.591Z,70.33
2018-02-22T05:24:42.307Z,70.40
2018-02-22T05:25:46.997Z,70.37
2018-02-22T05:26:51.840Z,70.50
2018-02-22T05:27:56.843Z,70.58
2018-02-22T05:29:01.620Z,70.51
2018-02-22T05:30:06.416Z,70.46
2018-02-22T05:31:11.194Z,70.44
2018-02-22T05:32:15.978Z,70.45
2018-02-22T05:33:21.067Z,70.42
2018-02-22T05:34:26.019Z,70.44
2018-02-22T05:35:30.808Z,70.43
2018-02-22T05:36:35.615Z,70.44
2018-02-22T05:37:40.398Z,70.45
2018-02-22T05:38:45.089Z,70.49
2018-02-22T05:39:50.057Z,70.49
2018-02-22T05:40:54.739Z,70.54
2018-02-22T05:41:59.604Z,70.62
2018-02-22T05:43:04.348Z,70.71
2018-02-22T05:44:08.963Z,70.78
2018-02-22T05:45:13.578Z,70.91
2018-02-22T05:46:18.796Z,70.91
2018-02-22T05:47:23.603Z,70.88
2018-02-22T05:48:28.400Z,70.94
2018-02-22T05:49:33.209Z,70.98
2018-02-22T05:50:38.016Z,71.03
2018-02-22T05:51:42.828Z,71.03
2018-02-22T05:52:47.567Z,71.06
2018-02-22T05:53:52.292Z,71.06
2018-02-22T05:54:57.045Z,71.10
2018-02-22T05:56:01.843Z,71.20
2018-02-22T05:57:06.670Z,71.23
2018-02-22T05:58:11.712Z,71.30
2018-02-22T05:59:16.374Z,71.39
2018-02-22T06:00:21.100Z,71.42
2018-02-22T06:01:25.805Z,71.49
2018-02-22T06:02:30.507Z,71.52
2018-02-22T06:03:35.195Z,71.54
2018-02-22T06:04:40.205Z,71.59
2018-02-22T06:05:44.942Z,71.67
2018-02-22T06:06:49.373Z,71.70
2018-02-22T06:07:53.802Z,71.69
2018-02-22T06:08:58.272Z,71.74
2018-02-22T06:10:02.966Z,71.78
2018-02-22T06:11:08.021Z,71.78
2018-02-22T06:12:12.684Z,71.77
2018-02-22T06:13:17.290Z,71.72
2018-02-22T06:14:21.970Z,71.66
2018-02-22T06:15:26.569Z,71.69
2018-02-22T06:16:31.193Z,71.67
2018-02-22T06:17:35.931Z,71.69
2018-02-22T06:18:40.527Z,71.69
2018-02-22T06:19:45.155Z,71.70
2018-02-22T06:20:49.813Z,71.75
2018-02-22T06:21:54.453Z,71.75
2018-02-22T06:22:59.392Z,71.77
2018-02-22T06:24:04.024Z,71.81
2018-02-22T06:25:08.682Z,71.83
2018-02-22T06:26:13.508Z,71.81
2018-02-22T06:27:18.245Z,71.85
2018-02-22T06:28:22.996Z,71.92
2018-02-22T06:29:28.131Z,71.93
2018-02-22T06:30:32.813Z,71.96
2018-02-22T06:31:37.559Z,71.99
2018-02-22T06:32:42.455Z,72.03
2018-02-22T06:33:47.306Z,72.00
2018-02-22T06:34:52.133Z,72.00
2018-02-22T06:35:57.362Z,71.96
2018-02-22T06:37:02.194Z,71.99
2018-02-22T06:38:06.952Z,71.99
2018-02-22T06:39:11.783Z,71.96
2018-02-22T06:40:16.526Z,71.93
2018-02-22T06:41:21.186Z,71.85
2018-02-22T06:42:26.109Z,71.85
2018-02-22T06:43:30.831Z,71.94
2018-02-22T06:44:35.469Z,71.95
2018-02-22T06:45:40.101Z,71.93
2018-02-22T06:46:44.690Z,71.97
2018-02-22T06:47:49.999Z,71.99
2018-02-22T06:48:54.862Z,71.92
2018-02-22T06:49:59.501Z,71.89
2018-02-22T06:51:04.201Z,71.87
2018-02-22T06:52:08.937Z,71.81
2018-02-22T06:53:13.683Z,71.67
2018-02-22T06:54:18.464Z,71.54
2018-02-22T06:55:23.612Z,71.44
2018-02-22T06:56:28.370Z,71.41
2018-02-22T06:57:33.202Z,71.35
2018-02-22T06:58:38.067Z,71.26
2018-02-22T06:59:42.929Z,71.15
2018-02-22T07:00:47.784Z,71.07
2018-02-22T07:01:52.872Z,71.09
2018-02-22T07:02:57.484Z,71.06
2018-02-22T07:04:02.272Z,70.99
2018-02-22T07:05:07.055Z,70.87
2018-02-22T07:06:11.868Z,70.72
2018-02-22T07:07:16.557Z,70.54
2018-02-22T07:08:21.681Z,70.44
2018-02-22T07:09:26.931Z,70.38
2018-02-22T07:10:31.711Z,70.28
2018-02-22T07:11:36.548Z,70.04
2018-02-22T07:12:41.292Z,69.96
2018-02-22T07:13:46.007Z,69.63
2018-02-22T07:14:51.007Z,69.50
2018-02-22T07:15:55.767Z,69.44
2018-02-22T07:17:00.457Z,69.31
2018-02-22T07:18:05.182Z,69.08
2018-02-22T07:19:09.889Z,69.01
2018-02-22T07:20:14.667Z,68.91
2018-02-22T07:21:19.690Z,68.86
2018-02-22T07:22:24.388Z,68.63
2018-02-22T07:23:29.109Z,68.49
2018-02-22T07:24:33.810Z,68.45
2018-02-22T07:25:38.527Z,68.28
2018-02-22T07:26:43.293Z,67.84
2018-02-22T07:27:48.321Z,67.68
2018-02-22T07:28:53.054Z,67.59
2018-02-22T07:29:57.786Z,67.42
2018-02-22T07:31:02.526Z,67.07
2018-02-22T07:32:07.201Z,66.88
2018-02-22T07:33:11.904Z,66.69
2018-02-22T07:34:16.993Z,66.44
2018-02-22T07:35:21.667Z,65.99
2018-02-22T07:36:26.375Z,65.57
2018-02-22T07:37:31.107Z,65.59
2018-02-22T07:38:35.809Z,65.42
2018-02-22T07:39:40.465Z,65.06
2018-02-22T07:40:45.655Z,64.92
2018-02-22T07:41:50.163Z,64.80
2018-02-22T07:42:54.728Z,64.58
2018-02-22T07:43:59.275Z,64.43
2018-02-22T07:45:03.841Z,64.24
2018-02-22T07:46:08.691Z,64.45
2018-02-22T07:47:13.222Z,64.49
2018-02-22T07:48:17.749Z,64.22
2018-02-22T07:49:22.305Z,63.80
2018-02-22T07:50:26.892Z,63.58
2018-02-22T07:51:31.457Z,63.32
2018-02-22T07:52:36.519Z,63.21
2018-02-22T07:53:41.073Z,63.00
2018-02-22T07:54:45.758Z,62.83
2018-02-22T07:55:50.382Z,62.62
2018-02-22T07:56:54.944Z,62.29
2018-02-22T07:57:59.471Z,62.06
2018-02-22T07:59:04.351Z,61.94
2018-02-22T08:00:09.365Z,61.55
2018-02-22T08:01:13.897Z,61.21
2018-02-22T08:02:18.508Z,61.36
2018-02-22T08:04:45.392Z,61.40
2018-02-22T08:05:50.060Z,60.83
2018-02-22T08:06:54.771Z,60.54
2018-02-22T08:07:59.620Z,60.33
2018-02-22T08:09:05.137Z,60.06
2018-02-22T08:10:09.971Z,59.47
2018-02-22T08:11:14.954Z,59.74
2018-02-22T08:12:19.721Z,59.66
2018-02-22T08:13:24.538Z,59.54
2018-02-22T08:14:29.351Z,59.39
2018-02-22T08:15:33.993Z,59.08
2018-02-22T08:16:38.561Z,58.67
2018-02-22T08:17:43.403Z,58.45
2018-02-22T08:18:48.123Z,58.54
2018-02-22T08:19:52.931Z,58.44
2018-02-22T08:20:57.597Z,57.98
2018-02-22T08:22:02.943Z,57.51
2018-02-22T08:23:07.690Z,57.39
2018-02-22T08:24:12.888Z,57.48
2018-02-22T08:25:17.749Z,57.17
2018-02-22T08:26:22.551Z,56.94
2018-02-22T08:27:27.283Z,56.50
2018-02-22T08:28:32.049Z,55.94
2018-02-22T08:29:36.797Z,55.85
2018-02-22T08:30:41.947Z,55.68
2018-02-22T08:31:46.685Z,55.43
2018-02-22T08:32:51.382Z,55.63
2018-02-22T08:33:56.512Z,55.66
2018-02-22T08:35:01.340Z,55.35
2018-02-22T08:36:06.221Z,55.36
2018-02-22T08:37:11.304Z,55.64
2018-02-22T08:38:16.129Z,55.75
2018-02-22T08:39:21.040Z,55.46
2018-02-22T08:40:25.805Z,55.25
2018-02-22T08:41:30.658Z,54.60
2018-02-22T08:42:35.549Z,54.65
2018-02-22T08:43:40.652Z,54.56
2018-02-22T08:44:45.492Z,54.60
2018-02-22T08:45:50.270Z,54.45
2018-02-22T08:46:55.096Z,54.60
2018-02-22T08:47:59.924Z,54.87
2018-02-22T08:49:04.786Z,54.74
2018-02-22T08:50:09.572Z,54.57
2018-02-22T08:51:14.382Z,54.31
2018-02-22T08:52:19.185Z,54.32
2018-02-22T08:53:23.918Z,54.16
2018-02-22T08:54:28.683Z,53.67
2018-02-22T08:55:34.015Z,53.43
2018-02-22T08:56:38.767Z,53.23
2018-02-22T08:57:43.708Z,53.28
2018-02-22T08:58:48.608Z,53.12
2018-02-22T08:59:53.553Z,52.78
2018-02-22T09:00:58.804Z,52.72
2018-02-22T09:02:04.176Z,53.39
2018-02-22T09:03:09.071Z,54.10
2018-02-22T09:04:14.063Z,54.38
2018-02-22T09:05:18.892Z,54.45
2018-02-22T09:06:24.293Z,54.86
2018-02-22T09:07:30.263Z,55.13
2018-02-22T09:08:35.899Z,55.35
2018-02-22T09:09:40.831Z,54.75
2018-02-22T09:10:45.679Z,54.64
2018-02-22T09:11:50.712Z,54.14
2018-02-22T09:12:56.024Z,53.88
2018-02-22T09:14:00.725Z,53.68
2018-02-22T09:15:06.478Z,53.82
2018-02-22T09:16:11.147Z,53.41
2018-02-22T09:17:15.780Z,53.10
2018-02-22T09:18:20.978Z,53.60
2018-02-22T09:19:25.763Z,53.66
2018-02-22T09:20:30.523Z,53.82
2018-02-22T09:21:36.300Z,53.62
2018-02-22T09:22:41.214Z,53.62
2018-02-22T09:23:47.267Z,53.52
2018-02-22T09:24:52.147Z,53.62
2018-02-22T09:25:57.002Z,53.97
2018-02-22T09:27:01.770Z,54.31
2018-02-22T09:28:06.920Z,54.28
2018-02-22T09:29:11.763Z,54.54
2018-02-22T09:30:16.876Z,54.64
2018-02-22T09:31:21.580Z,54.86
2018-02-22T09:32:26.265Z,55.33
2018-02-22T09:33:31.837Z,55.75
2018-02-22T09:34:37.027Z,55.87
2018-02-22T09:35:41.814Z,55.40
2018-02-22T09:36:46.693Z,55.16
2018-02-22T09:37:51.453Z,55.15
2018-02-22T09:38:56.183Z,55.00
2018-02-22T09:40:01.132Z,55.27
2018-02-22T09:41:06.292Z,55.81
2018-02-22T09:42:11.073Z,55.98
2018-02-22T09:43:15.903Z,56.11
2018-02-22T09:44:21.263Z,56.00
2018-02-22T09:45:26.124Z,56.23
2018-02-22T09:46:31.095Z,56.34
2018-02-22T09:47:35.922Z,55.62
2018-02-22T09:48:40.733Z,55.79
2018-02-22T09:49:45.532Z,55.05
2018-02-22T09:50:50.409Z,54.61
2018-02-22T09:51:55.895Z,54.38
2018-02-22T09:53:01.144Z,53.68
2018-02-22T09:54:05.811Z,53.41
2018-02-22T09:55:10.580Z,53.19
2018-02-22T09:56:15.309Z,53.21
2018-02-22T09:57:20.036Z,52.73
2018-02-22T09:58:24.759Z,52.48
2018-02-22T09:59:29.963Z,52.04
2018-02-22T10:00:34.734Z,51.71
2018-02-22T10:01:39.488Z,51.40
2018-02-22T10:02:44.196Z,50.56
2018-02-22T10:03:48.947Z,50.82
2018-02-22T10:04:53.556Z,50.83
2018-02-22T10:05:58.293Z,51.17
2018-02-22T10:07:02.813Z,50.91
2018-02-22T10:08:07.336Z,50.14
2018-02-22T10:09:11.906Z,49.97
2018-02-22T10:10:16.500Z,49.89
2018-02-22T10:11:21.055Z,50.27
2018-02-22T10:12:25.601Z,49.96
2018-02-22T10:13:30.126Z,49.83
2018-02-22T10:14:34.680Z,49.54
2018-02-22T10:15:39.926Z,49.90
2018-02-22T10:16:44.925Z,49.38
2018-02-22T10:17:49.646Z,49.19
2018-02-22T10:18:54.311Z,49.63
2018-02-22T10:19:58.950Z,50.08
2018-02-22T10:21:03.589Z,50.33
2018-02-22T10:22:08.283Z,50.01
2018-02-22T10:23:13.507Z,50.09
2018-02-22T10:24:18.296Z,50.09
2018-02-22T10:25:23.145Z,49.61
2018-02-22T10:26:27.966Z,49.21
2018-02-22T10:27:32.969Z,48.86
2018-02-22T10:28:38.597Z,48.75
2018-02-22T10:29:43.656Z,48.46
2018-02-22T10:30:48.368Z,48.27
2018-02-22T10:31:53.089Z,48.17
2018-02-22T10:32:57.803Z,48.48
2018-02-22T10:34:02.661Z,48.29
2018-02-22T10:35:07.410Z,48.03
2018-02-22T10:36:12.448Z,47.87
2018-02-22T10:37:17.190Z,48.07
2018-02-22T10:38:22.020Z,48.16
2018-02-22T10:39:26.809Z,47.64
2018-02-22T10:40:31.669Z,47.26
2018-02-22T10:41:37.027Z,47.35
2018-02-22T10:42:42.648Z,46.74
2018-02-22T10:43:47.878Z,46.66
2018-02-22T10:44:53.070Z,46.52
2018-02-22T10:45:58.205Z,46.61
2018-02-22T10:47:03.293Z,46.03
2018-02-22T10:48:08.531Z,46.04
2018-02-22T10:49:14.215Z,46.08
2018-02-22T10:50:19.486Z,46.30
2018-02-22T10:51:24.834Z,46.17
2018-02-22T10:52:30.395Z,46.06
2018-02-22T10:53:35.649Z,46.18
2018-02-22T10:54:41.048Z,45.91
2018-02-22T10:55:46.686Z,45.27
2018-02-22T10:56:51.959Z,45.01
2018-02-22T10:57:56.964Z,44.44
2018-02-22T10:59:02.097Z,43.68
2018-02-22T11:00:07.274Z,43.46
2018-02-22T11:01:18.078Z,43.49
2018-02-22T11:02:53.390Z,43.29
2018-02-22T11:03:59.405Z,42.32
2018-02-22T11:05:05.313Z,42.36
2018-02-22T11:06:10.822Z,41.94
2018-02-22T11:07:16.227Z,41.90
2018-02-22T11:08:22.225Z,41.92
2018-02-22T11:09:27.711Z,41.79
2018-02-22T11:10:33.084Z,41.19
2018-02-22T11:11:38.367Z,41.11
2018-02-22T11:12:43.998Z,41.00
2018-02-22T11:13:49.819Z,40.66
2018-02-22T11:14:55.236Z,40.69
2018-02-22T11:16:00.587Z,40.59
2018-02-22T11:17:05.948Z,40.76
2018-02-22T11:18:11.391Z,40.74
2018-02-22T11:19:16.904Z,41.23
2018-02-22T11:20:23.191Z,40.82
2018-02-22T11:21:28.438Z,40.67
2018-02-22T11:22:33.597Z,40.32
2018-02-22T11:23:39.217Z,40.08
2018-02-22T11:24:44.586Z,39.58
2018-02-22T11:25:50.062Z,39.61
2018-02-22T11:26:55.580Z,39.53
2018-02-22T11:28:00.944Z,39.35
2018-02-22T11:29:06.577Z,39.18
2018-02-22T11:30:11.958Z,38.68
2018-02-22T11:31:17.307Z,38.39
2018-02-22T11:32:22.585Z,38.14
2018-02-22T11:33:28.178Z,38.17
2018-02-22T11:34:33.491Z,38.24
2018-02-22T11:35:38.610Z,38.25
2018-02-22T11:36:44.071Z,38.41
2018-02-22T11:37:52.733Z,38.49
2018-02-22T11:39:11.381Z,38.36
2018-02-22T11:40:23.984Z,38.01
2018-02-22T11:41:29.330Z,38.27
2018-02-22T11:42:34.509Z,38.24
2018-02-22T11:43:39.862Z,38.28
2018-02-22T11:44:45.212Z,38.92
2018-02-22T11:45:50.857Z,38.92
2018-02-22T11:46:56.292Z,39.11
2018-02-22T11:48:02.000Z,39.12
2018-02-22T11:49:07.556Z,38.98
2018-02-22T11:50:12.939Z,38.72
2018-02-22T11:51:19.181Z,38.43
2018-02-22T11:52:24.751Z,38.35
2018-02-22T11:53:30.747Z,38.21
2018-02-22T11:54:36.317Z,38.08
2018-02-22T11:55:41.671Z,38.31
2018-02-22T11:56:47.532Z,38.26
2018-02-22T11:57:53.469Z,38.04
2018-02-22T11:58:59.631Z,37.83
2018-02-22T12:00:05.707Z,37.68
2018-02-22T12:01:11.442Z,37.57
2018-02-22T12:02:17.246Z,37.42
2018-02-22T12:03:22.789Z,37.03
2018-02-22T12:04:29.082Z,36.70
2018-02-22T12:05:36.810Z,36.48
2018-02-22T12:06:42.297Z,36.81
2018-02-22T12:07:49.332Z,37.51
2018-02-22T12:08:56.559Z,38.02
2018-02-22T12:10:02.540Z,38.01
2018-02-22T12:11:10.214Z,37.99
2018-02-22T12:12:16.424Z,37.40
2018-02-22T12:13:22.323Z,36.89
2018-02-22T12:14:27.098Z,36.42
2018-02-22T12:15:31.983Z,36.44
2018-02-22T12:16:36.698Z,36.45
2018-02-22T12:17:41.746Z,36.79
2018-02-22T12:18:47.627Z,36.92
2018-02-22T12:19:52.467Z,36.81
2018-02-22T12:20:57.257Z,37.06
2018-02-22T12:22:02.171Z,37.04
2018-02-22T12:23:07.088Z,37.07
2018-02-22T12:24:12.504Z,37.02
2018-02-22T12:25:17.350Z,36.63
2018-02-22T12:26:22.689Z,36.93
2018-02-22T12:27:27.581Z,37.16
2018-02-22T12:28:32.622Z,37.17
2018-02-22T12:29:37.697Z,37.20
2018-02-22T12:30:43.019Z,37.33
2018-02-22T12:31:47.999Z,37.04
2018-02-22T12:32:52.808Z,37.50
2018-02-22T12:33:57.676Z,37.79
2018-02-22T12:35:02.447Z,37.57
2018-02-22T12:36:07.223Z,37.55
2018-02-22T12:37:12.526Z,37.52
2018-02-22T12:38:17.237Z,37.29
2018-02-22T12:39:22.286Z,37.73
2018-02-22T12:40:27.024Z,38.02
2018-02-22T12:41:31.731Z,37.94
2018-02-22T12:42:36.436Z,37.78
2018-02-22T12:43:41.443Z,37.68
2018-02-22T12:44:46.156Z,37.65
2018-02-22T12:45:51.006Z,37.89
2018-02-22T12:46:55.886Z,37.93
2018-02-22T12:48:00.711Z,38.28
2018-02-22T12:49:05.556Z,38.60
2018-02-22T12:50:11.753Z,38.40
2018-02-22T12:51:16.620Z,38.15
2018-02-22T12:52:21.530Z,37.80
2018-02-22T12:53:26.433Z,37.66
2018-02-22T12:54:31.330Z,37.73
2018-02-22T12:55:36.204Z,37.72
2018-02-22T12:56:41.568Z,38.17
2018-02-22T12:57:46.438Z,37.98
2018-02-22T12:58:51.383Z,37.81
2018-02-22T12:59:56.293Z,38.49
2018-02-22T13:01:01.482Z,38.81
2018-02-22T13:02:06.725Z,38.67
2018-02-22T13:03:11.532Z,38.47
2018-02-22T13:04:16.305Z,38.49
2018-02-22T13:05:21.166Z,37.98
2018-02-22T13:06:25.914Z,37.81
2018-02-22T13:07:30.828Z,37.54
2018-02-22T13:08:36.869Z,37.73
2018-02-22T13:09:42.453Z,38.00
2018-02-22T13:10:47.156Z,38.21
2018-02-22T13:11:51.869Z,38.31
2018-02-22T13:12:56.646Z,38.19
2018-02-22T13:14:02.100Z,38.16
2018-02-22T13:15:08.675Z,37.63
2018-02-22T13:16:13.579Z,37.70
2018-02-22T13:17:19.920Z,37.50
2018-02-22T13:18:28.734Z,37.44
2018-02-22T13:19:34.019Z,37.35
2018-02-22T13:20:39.423Z,37.65
2018-02-22T13:21:44.454Z,37.59
2018-02-22T13:22:51.805Z,37.33
2018-02-22T13:23:57.078Z,37.02
2018-02-22T13:25:02.540Z,36.83
2018-02-22T13:26:09.007Z,36.74
2018-02-22T13:27:15.196Z,37.14
2018-02-22T13:28:20.676Z,37.46
2018-02-22T13:29:25.871Z,37.75
2018-02-22T13:30:32.045Z,38.00
2018-02-22T13:31:37.151Z,38.19
2018-02-22T13:32:47.268Z,38.08
2018-02-22T13:33:57.833Z,38.03
2018-02-22T13:35:02.511Z,37.84
2018-02-22T13:36:07.631Z,37.67
2018-02-22T13:37:16.898Z,37.94
2018-02-22T13:38:27.559Z,38.29
2018-02-22T13:39:32.813Z,39.33
2018-02-22T13:40:37.726Z,39.38
2018-02-22T13:41:42.890Z,39.49
2018-02-22T13:42:47.770Z,39.32
2018-02-22T13:43:56.888Z,39.06
2018-02-22T13:45:06.911Z,39.24
2018-02-22T13:46:11.694Z,39.25
2018-02-22T13:47:16.400Z,39.38
2018-02-22T13:48:21.933Z,39.47
2018-02-22T13:49:32.030Z,39.62
2018-02-22T13:51:10.665Z,39.80
2018-02-22T13:52:15.589Z,39.74
2018-02-22T13:53:20.492Z,39.46
2018-02-22T13:54:25.319Z,39.40
2018-02-22T13:55:30.297Z,39.35
2018-02-22T13:57:38.913Z,39.19
2018-02-22T13:58:43.924Z,38.66
2018-02-22T13:59:48.862Z,38.35
2018-02-22T14:03:02.327Z,38.17